Time;durP1;ratioP1;P1;durP2;ratioP2;P2;SDS_P1;SDS_P2;PMS_P1;PMS_P2;Temp;Humidity;BMP_temperature;BMP_pressure;BME280_temperature;BME280_humidity;BME280_pressure;Samples;Min_cycle;Max_cycle;Signal;HPM_P1;HPM_P2
2022/09/14 04:52:59;;;;;;;;;;;;;;;22.52;79.21;96178.41;4259381;27;11256;-73
2022/09/14 04:55:02;;;;;;;;;;;;;;;22.81;78.61;96186.47;4242675;27;5653;-73
2022/09/14 04:57:05;;;;;;;;;;;;;;;23.03;77.83;96189.50;4242797;27;5749;-73
2022/09/14 04:59:09;;;;;;;;;;;;;;;23.20;77.50;96199.81;4247413;27;5741;-73
2022/09/14 05:01:15;;;;;;;;;;;;;;;23.34;76.63;96189.94;4245166;27;5686;-73
2022/09/14 05:03:17;;;;;;;;;;;;;;;23.45;76.81;96187.94;4241848;27;7971;-74
2022/09/14 05:05:20;;;;;;;;;;;;;;;23.53;76.43;96187.25;4246288;27;5646;-74
2022/09/14 05:07:23;;;;;;;;;;;;;;;23.60;76.13;96187.75;4248187;27;5772;-74
2022/09/14 05:09:27;;;;;;;;;;;;;;;23.65;75.94;96187.66;4248107;27;5649;-74
2022/09/14 05:11:32;;;;;;;;;;;;;;;23.73;75.37;96197.00;4247327;27;7668;-74
2022/09/14 05:13:35;;;;;;;;;;;;;;;23.77;75.06;96193.44;4247715;27;5661;-75
2022/09/14 05:15:38;;;;;;;;;;;;;;;23.79;74.93;96207.47;4247882;27;5769;-74
2022/09/14 05:17:41;;;;;;;;;;;;;;;23.83;74.86;96202.28;4238988;27;5687;-74
2022/09/14 05:19:44;;;;;;;;;;;;;;;23.87;75.09;96197.09;4234492;27;5784;-74
2022/09/14 05:21:47;;;;;;;;;;;;;;;23.90;74.97;96207.28;4234628;27;6689;-74
2022/09/14 05:23:53;;;;;;;;;;;;;;;23.93;74.32;96212.13;4242175;27;6941;-74
2022/09/14 05:25:58;;;;;;;;;;;;;;;23.96;74.38;96211.53;4240617;27;5777;-74
2022/09/14 05:28:01;;;;;;;;;;;;;;;23.99;74.25;96221.75;4231127;27;6045;-73
2022/09/14 05:30:04;;;;;;;;;;;;;;;24.01;73.91;96227.66;4239554;27;5821;-74
2022/09/14 05:32:07;;;;;;;;;;;;;;;24.02;73.91;96231.97;4245201;27;5779;-74
2022/09/14 05:34:12;;;;;;;;;;;;;;;24.04;73.73;96238.69;4230494;28;5675;-74
2022/09/14 05:36:15;;;;;;;;;;;;;;;24.05;73.98;96228.69;4232491;27;6543;-74
2022/09/14 05:38:18;;;;;;;;;;;;;;;24.08;73.86;96230.78;4241651;27;5616;-74
2022/09/14 05:40:21;;;;;;;;;;;;;;;24.11;73.43;96241.00;4243416;27;5298;-74
2022/09/14 05:42:25;;;;;;;;;;;;;;;24.12;73.57;96245.31;4246813;27;5761;-74
2022/09/14 05:44:28;;;;;;;;;;;;;;;24.15;73.17;96262.84;4247719;27;5801;-74
2022/09/14 05:46:30;;;;;;;;;;;;;;;24.14;72.99;96251.25;4247817;27;5657;-74
2022/09/14 05:48:35;;;;;;;;;;;;;;;24.11;73.40;96262.59;4247636;27;5741;-74
2022/09/14 05:50:37;;;;;;;;;;;;;;;24.12;73.17;96258.81;4247522;27;5682;-74
2022/09/14 05:52:40;;;;;;;;;;;;;;;24.13;73.07;96254.22;4225561;27;5675;-73
2022/09/14 05:54:43;;;;;;;;;;;;;;;24.11;73.29;96257.19;4229892;28;6505;-74
2022/09/14 05:56:46;;;;;;;;;;;;;;;24.11;73.25;96268.00;4234624;27;5655;-74
2022/09/14 05:58:50;;;;;;;;;;;;;;;24.11;73.01;96258.00;4228219;28;5634;-74
2022/09/14 06:00:53;;;;;;;;;;;;;;;24.06;73.24;96268.09;4228368;28;6480;-73
2022/09/14 06:02:56;;;;;;;;;;;;;;;24.07;72.85;96273.19;4219311;28;5676;-73
2022/09/14 06:04:59;;;;;;;;;;;;;;;24.11;72.90;96257.19;4219241;28;5785;-74
2022/09/14 06:07:01;;;;;;;;;;;;;;;24.14;72.93;96253.13;4219155;28;5662;-73
2022/09/14 06:09:20;;;;;;;;;;;;;;;24.17;72.76;96255.25;4218844;28;5682;-74
2022/09/14 06:11:25;;;;;;;;;;;;;;;24.17;72.51;96247.13;4218510;28;5695;-74
2022/09/14 06:13:28;;;;;;;;;;;;;;;24.12;72.31;96242.59;4235520;28;5092;-73
2022/09/14 06:15:33;;;;;;;;;;;;;;;24.14;72.51;96247.75;4235283;28;5669;-74
2022/09/14 06:17:38;;;;;;;;;;;;;;;24.14;72.53;96253.94;4230900;28;5698;-74
2022/09/14 06:19:41;;;;;;;;;;;;;;;24.17;72.58;96249.84;4218925;28;5671;-74
2022/09/14 06:21:46;;;;;;;;;;;;;;;24.17;72.13;96252.53;4220523;28;5666;-74
2022/09/14 06:23:52;;;;;;;;;;;;;;;24.17;72.04;96250.66;4235997;27;6322;-73
2022/09/14 06:25:56;;;;;;;;;;;;;;;24.18;71.82;96246.84;4235637;27;5709;-74
2022/09/14 06:27:58;;;;;;;;;;;;;;;24.20;71.64;96244.66;4233793;27;7380;-74
2022/09/14 06:30:01;;;;;;;;;;;;;;;24.22;71.89;96245.16;4222315;28;5606;-75
2022/09/14 06:32:06;;;;;;;;;;;;;;;24.24;71.93;96240.28;4218758;28;6344;-75
2022/09/14 06:34:10;;;;;;;;;;;;;;;24.24;71.64;96248.38;4218582;28;5666;-75
2022/09/14 06:36:15;;;;;;;;;;;;;;;24.24;71.41;96244.88;4218468;28;5675;-75
2022/09/14 06:38:18;;;;;;;;;;;;;;;24.22;71.54;96253.25;4227435;28;5654;-75
2022/09/14 06:40:21;;;;;;;;;;;;;;;24.25;71.79;96260.00;4234130;28;5617;-75
2022/09/14 06:42:24;;;;;;;;;;;;;;;24.26;71.50;96267.78;4233921;28;5820;-75
2022/09/14 06:44:27;;;;;;;;;;;;;;;24.29;71.21;96275.31;4218760;28;5073;-75
2022/09/14 06:46:32;;;;;;;;;;;;;;;24.28;71.38;96284.50;4228259;28;5650;-74
2022/09/14 06:48:41;;;;;;;;;;;;;;;24.25;71.11;96273.50;4235616;28;5709;-75
2022/09/14 06:50:45;;;;;;;;;;;;;;;24.23;71.52;96276.47;4218748;28;5674;-75
2022/09/14 06:52:48;;;;;;;;;;;;;;;24.24;71.09;96293.50;4224729;28;5911;-75
2022/09/14 06:54:50;;;;;;;;;;;;;;;24.24;71.19;96302.41;4225046;28;5695;-75
2022/09/14 06:56:54;;;;;;;;;;;;;;;24.23;71.09;96316.19;4224530;28;5748;-75
2022/09/14 06:58:58;;;;;;;;;;;;;;;24.20;70.86;96325.66;4217825;28;5679;-75
2022/09/14 07:01:04;;;;;;;;;;;;;;;24.17;70.89;96341.66;4218330;28;5667;-75
2022/09/14 07:03:08;;;;;;;;;;;;;;;24.12;70.97;96361.41;4218250;28;5823;-75
2022/09/14 07:05:12;;;;;;;;;;;;;;;24.10;70.87;96374.41;4217036;28;5691;-75
2022/09/14 07:07:16;;;;;;;;;;;;;;;24.11;70.68;96382.22;4218372;28;5695;-75
2022/09/14 07:09:19;;;;;;;;;;;;;;;24.11;70.72;96387.63;4229956;28;5650;-74
2022/09/14 07:11:25;;;;;;;;;;;;;;;24.09;70.77;96362.81;4233298;28;5626;-75
2022/09/14 07:13:29;;;;;;;;;;;;;;;24.03;71.03;96368.56;4234791;28;5654;-75
2022/09/14 07:15:32;;;;;;;;;;;;;;;23.99;70.76;96373.72;4222684;28;5107;-75
2022/09/14 07:17:36;;;;;;;;;;;;;;;23.99;70.73;96381.84;4224995;28;5666;-75
2022/09/14 07:19:39;;;;;;;;;;;;;;;24.01;70.79;96385.06;4227946;28;5679;-76
2022/09/14 07:21:43;;;;;;;;;;;;;;;24.03;70.64;96379.38;4225409;28;5680;-76
2022/09/14 07:23:47;;;;;;;;;;;;;;;24.02;70.60;96373.19;4226981;28;5670;-75
2022/09/14 07:26:00;;;;;;;;;;;;;;;24.01;70.21;96376.13;4230482;28;5784;-75
2022/09/14 07:28:03;;;;;;;;;;;;;;;24.02;70.30;96377.78;4227648;28;5748;-75
2022/09/14 07:30:07;;;;;;;;;;;;;;;24.03;70.48;96385.56;4234913;28;5839;-75
2022/09/14 07:32:10;;;;;;;;;;;;;;;24.04;70.13;96376.38;4232836;28;5609;-75
2022/09/14 07:34:15;;;;;;;;;;;;;;;24.04;70.42;96375.59;4221690;28;5650;-75
2022/09/14 07:36:18;;;;;;;;;;;;;;;24.01;70.24;96378.84;4230549;28;5687;-75
2022/09/14 07:38:22;;;;;;;;;;;;;;;24.01;70.10;96373.44;4216561;28;5543;-76
2022/09/14 07:40:47;;;;;;;;;;;;;;;24.04;70.23;96364.78;4222914;28;5098;-75
2022/09/14 07:42:51;;;;;;;;;;;;;;;24.04;70.10;96381.78;4234280;28;5770;-75
2022/09/14 07:44:59;;;;;;;;;;;;;;;24.01;70.42;96379.66;4233938;28;5645;-75
2022/09/14 07:47:01;;;;;;;;;;;;;;;24.01;70.40;96374.28;4224843;28;5687;-73
2022/09/14 07:49:06;;;;;;;;;;;;;;;24.03;70.53;96371.28;4217738;28;5691;-73
2022/09/14 07:51:10;;;;;;;;;;;;;;;24.03;69.93;96368.56;4220046;28;5646;-73
2022/09/14 07:53:16;;;;;;;;;;;;;;;24.02;70.25;96370.47;4231562;27;5642;-73
2022/09/14 07:55:20;;;;;;;;;;;;;;;24.03;70.08;96355.06;4233980;28;5654;-74
2022/09/14 07:57:24;;;;;;;;;;;;;;;24.03;70.29;96349.69;4227828;27;5797;-73
2022/09/14 07:59:47;;;;;;;;;;;;;;;24.01;70.26;96346.44;4217578;28;5840;-74
2022/09/14 08:01:50;;;;;;;;;;;;;;;24.03;70.16;96352.38;4234293;28;5654;-74
2022/09/14 08:04:01;;;;;;;;;;;;;;;24.02;70.12;96353.47;4234376;28;5689;-74
2022/09/14 08:06:09;;;;;;;;;;;;;;;24.00;69.83;96353.72;4232023;28;5647;-72
2022/09/14 08:08:13;;;;;;;;;;;;;;;23.97;70.32;96348.13;4215819;28;5623;-73
2022/09/14 08:10:16;;;;;;;;;;;;;;;24.02;70.43;96342.69;4217232;28;5065;-73
2022/09/14 08:12:20;;;;;;;;;;;;;;;24.00;70.04;96352.94;4216039;28;5793;-73
2022/09/14 08:14:24;;;;;;;;;;;;;;;24.03;70.47;96346.97;4228992;28;5732;-73
2022/09/14 08:16:28;;;;;;;;;;;;;;;24.04;70.25;96348.59;4233963;28;5653;-73
2022/09/14 08:18:34;;;;;;;;;;;;;;;24.04;70.36;96343.97;4233736;28;5657;-73
2022/09/14 08:20:36;;;;;;;;;;;;;;;24.07;70.43;96331.78;4234124;28;5742;-73
2022/09/14 08:22:39;;;;;;;;;;;;;;;24.10;70.23;96336.59;4231885;28;5650;-73
2022/09/14 08:24:42;;;;;;;;;;;;;;;24.07;70.19;96327.19;4215529;28;5743;-73
2022/09/14 08:26:48;;;;;;;;;;;;;;;24.09;70.00;96335.81;4224667;28;5748;-73
2022/09/14 08:28:54;;;;;;;;;;;;;;;24.09;69.82;96327.69;4233169;28;5642;-74
2022/09/14 08:31:02;;;;;;;;;;;;;;;24.14;70.11;96332.25;4233281;28;5650;-74
2022/09/14 08:33:05;;;;;;;;;;;;;;;24.16;70.17;96331.94;4233978;28;5672;-90
2022/09/14 08:35:08;;;;;;;;;;;;;;;24.18;69.76;96332.47;4223852;28;5662;-74
2022/09/14 08:37:12;;;;;;;;;;;;;;;24.22;69.88;96328.06;4217232;28;5699;-73
2022/09/14 08:39:17;;;;;;;;;;;;;;;24.24;69.79;96337.50;4216871;28;5658;-72
2022/09/14 08:41:28;;;;;;;;;;;;;;;24.23;69.69;96330.47;4216891;28;5815;-73
2022/09/14 08:43:34;;;;;;;;;;;;;;;24.26;69.95;96334.53;4232288;28;5658;-73
2022/09/14 08:45:40;;;;;;;;;;;;;;;24.29;69.42;96334.72;4233817;27;5664;-73
2022/09/14 08:47:43;;;;;;;;;;;;;;;24.36;69.80;96337.09;4233606;28;5822;-73
2022/09/14 08:49:54;;;;;;;;;;;;;;;24.42;69.47;96343.22;4233346;28;5756;-73
2022/09/14 08:51:57;;;;;;;;;;;;;;;24.43;69.18;96326.72;4230667;28;5658;-71
2022/09/14 08:54:00;;;;;;;;;;;;;;;24.43;69.50;96329.44;4221128;28;5688;-70
2022/09/14 08:56:12;;;;;;;;;;;;;;;24.45;69.16;96326.44;4216470;28;5782;-71
2022/09/14 08:58:26;;;;;;;;;;;;;;;24.45;68.96;96310.22;4219240;28;7726;-70
2022/09/14 09:00:39;;;;;;;;;;;;;;;24.44;68.84;96297.81;4228228;28;5721;-69
2022/09/14 09:03:24;;;;;;;;;;;;;;;24.43;69.20;96313.22;4223103;28;5613;-73
2022/09/14 09:05:36;;;;;;;;;;;;;;;24.45;68.88;96307.50;4227894;28;5700;-73
2022/09/14 09:07:52;;;;;;;;;;;;;;;24.46;69.14;96312.63;4233199;27;6110;-76
2022/09/14 09:09:57;;;;;;;;;;;;;;;24.49;68.79;96316.66;4233914;28;5654;-73
2022/09/14 09:12:01;;;;;;;;;;;;;;;24.50;68.87;96313.66;4232956;28;5665;-73
2022/09/14 09:14:13;;;;;;;;;;;;;;;24.51;68.92;96311.75;4233272;28;5831;-76
2022/09/14 09:16:24;;;;;;;;;;;;;;;24.54;68.95;96300.34;4232667;27;8415;-68
2022/09/14 09:18:36;;;;;;;;;;;;;;;24.53;69.01;96287.94;4233762;28;6200;-74
2022/09/14 09:20:46;;;;;;;;;;;;;;;24.56;68.83;96284.66;4233402;28;5769;-77
2022/09/14 09:23:06;;;;;;;;;;;;;;;24.55;68.89;96288.44;4230708;28;5673;-73
2022/09/14 09:25:16;;;;;;;;;;;;;;;24.54;68.87;96282.25;4233262;28;5791;-73
2022/09/14 09:27:18;;;;;;;;;;;;;;;24.54;68.57;96286.84;4233134;28;5745;-72
2022/09/14 09:29:22;;;;;;;;;;;;;;;24.57;68.58;96278.16;4221486;27;5695;-70
2022/09/14 09:31:32;;;;;;;;;;;;;;;24.61;68.49;96276.47;4236825;28;5840;-67
2022/09/14 09:33:35;;;;;;;;;;;;;;;24.63;68.60;96269.66;4237279;28;5741;-73
2022/09/14 09:35:39;;;;;;;;;;;;;;;24.63;68.69;96266.97;4236743;27;5809;-78
2022/09/14 09:37:43;;;;;;;;;;;;;;;24.63;68.91;96263.47;4232152;28;5687;-71
2022/09/14 09:39:46;;;;;;;;;;;;;;;24.64;68.60;96259.66;4233717;28;5645;-75
2022/09/14 09:41:55;;;;;;;;;;;;;;;24.65;68.80;96258.56;4236022;28;6368;-75
2022/09/14 09:44:01;;;;;;;;;;;;;;;24.65;68.83;96250.44;4231911;28;5678;-72
2022/09/14 09:46:07;;;;;;;;;;;;;;;24.66;68.74;96254.75;4224788;28;5817;-73
2022/09/14 09:48:11;;;;;;;;;;;;;;;24.68;69.02;96244.44;4235361;28;5701;-68
2022/09/14 09:50:19;;;;;;;;;;;;;;;24.70;68.62;96239.56;4236751;28;5748;-73
2022/09/14 09:52:21;;;;;;;;;;;;;;;24.74;69.00;96243.28;4235961;28;5673;-74
2022/09/14 09:54:29;;;;;;;;;;;;;;;24.74;68.83;96237.88;4233332;28;5729;-73
2022/09/14 09:56:35;;;;;;;;;;;;;;;24.75;68.58;96228.66;4234225;28;5640;-73
2022/09/14 09:58:39;;;;;;;;;;;;;;;24.77;68.40;96231.88;4236115;28;5843;-77
2022/09/14 10:00:54;;;;;;;;;;;;;;;24.79;68.58;96228.84;4219827;28;7726;-74
2022/09/14 10:03:19;;;;;;;;;;;;;;;24.79;68.55;96226.97;4219027;28;5758;-74
2022/09/14 10:05:27;;;;;;;;;;;;;;;24.80;68.21;96216.94;4227060;28;5679;-74
2022/09/14 10:07:33;;;;;;;;;;;;;;;24.83;68.09;96213.66;4219220;28;5729;-74
2022/09/14 10:09:38;;;;;;;;;;;;;;;24.83;68.21;96211.75;4233719;28;5661;-74
2022/09/14 10:11:41;;;;;;;;;;;;;;;24.85;68.25;96216.88;4236064;27;5661;-74
2022/09/14 10:13:47;;;;;;;;;;;;;;;24.84;67.92;96210.66;4235702;28;5729;-74
2022/09/14 10:15:49;;;;;;;;;;;;;;;24.84;68.25;96210.66;4235372;28;5626;-74
2022/09/14 10:18:05;;;;;;;;;;;;;;;24.85;68.12;96206.06;4220649;28;5762;-74
2022/09/14 10:20:22;;;;;;;;;;;;;;;24.88;67.65;96195.44;4233413;28;5776;-72
2022/09/14 10:22:28;;;;;;;;;;;;;;;24.89;67.54;96197.03;4234389;28;5092;-73
2022/09/14 10:24:32;;;;;;;;;;;;;;;24.91;67.64;96194.03;4219672;28;5698;-74
2022/09/14 10:26:37;;;;;;;;;;;;;;;24.92;67.30;96177.53;4219117;28;5750;-74
2022/09/14 10:28:42;;;;;;;;;;;;;;;24.95;67.37;96171.53;4218495;28;5738;-74
2022/09/14 10:30:50;;;;;;;;;;;;;;;24.97;66.98;96166.63;4218900;28;5750;-74
2022/09/14 10:32:58;;;;;;;;;;;;;;;25.00;67.03;96175.22;4218858;28;5705;-74
2022/09/14 10:35:01;;;;;;;;;;;;;;;25.02;67.02;96167.63;4218807;28;5729;-74
2022/09/14 10:37:16;;;;;;;;;;;;;;;25.05;66.50;96170.56;4221725;28;5798;-73
2022/09/14 10:39:25;;;;;;;;;;;;;;;25.08;66.72;96171.84;4218836;28;5675;-73
2022/09/14 10:41:35;;;;;;;;;;;;;;;25.07;66.62;96175.66;4218531;28;5680;-73
2022/09/14 10:43:55;;;;;;;;;;;;;;;25.05;66.44;96173.25;4218145;28;5730;-74
2022/09/14 10:46:02;;;;;;;;;;;;;;;25.02;66.53;96175.75;4227214;28;5753;-73
2022/09/14 10:48:24;;;;;;;;;;;;;;;24.98;66.10;96179.03;4220715;28;6040;-73
2022/09/14 10:50:40;;;;;;;;;;;;;;;24.96;66.45;96180.44;4235232;27;7699;-74
2022/09/14 10:52:52;;;;;;;;;;;;;;;24.96;65.92;96186.63;4221922;28;5776;-73
2022/09/14 10:55:10;;;;;;;;;;;;;;;24.92;66.05;96180.25;4221901;28;5690;-74
2022/09/14 10:57:22;;;;;;;;;;;;;;;24.92;66.10;96196.47;4216829;28;5797;-72
2022/09/14 10:59:32;;;;;;;;;;;;;;;24.90;65.84;96193.22;4224180;27;5649;-72
2022/09/14 11:02:00;;;;;;;;;;;;;;;24.91;65.77;96192.13;4226489;27;5661;-74
2022/09/14 11:04:21;;;;;;;;;;;;;;;24.90;65.66;96187.81;4234519;28;5657;-73
2022/09/14 11:06:39;;;;;;;;;;;;;;;24.93;65.73;96181.84;4223086;28;5720;-72
2022/09/14 11:08:48;;;;;;;;;;;;;;;24.96;65.66;96177.72;4231699;28;5831;-73
2022/09/14 11:11:04;;;;;;;;;;;;;;;24.96;65.53;96173.13;4234364;28;5654;-72
2022/09/14 11:13:34;;;;;;;;;;;;;;;25.01;65.46;96164.13;4234464;27;5710;-73
2022/09/14 11:15:46;;;;;;;;;;;;;;;25.04;65.26;96165.44;4234780;27;5630;-74
2022/09/14 11:18:12;;;;;;;;;;;;;;;25.00;65.23;96165.19;4217811;28;6427;-74
2022/09/14 11:20:25;;;;;;;;;;;;;;;24.95;65.42;96170.72;4217989;28;5837;-73
2022/09/14 11:22:41;;;;;;;;;;;;;;;24.95;65.49;96163.41;4221219;28;5807;-74
2022/09/14 11:24:48;;;;;;;;;;;;;;;24.91;65.42;96162.38;4230824;28;5765;-73
2022/09/14 11:27:01;;;;;;;;;;;;;;;24.92;65.40;96164.03;4234187;28;6814;-73
2022/09/14 11:29:18;;;;;;;;;;;;;;;24.96;65.45;96167.72;4219217;28;5758;-72
2022/09/14 11:31:26;;;;;;;;;;;;;;;25.01;65.59;96161.44;4234396;28;5708;-73
2022/09/14 11:33:35;;;;;;;;;;;;;;;25.05;65.29;96162.44;4233582;28;5637;-74
2022/09/14 11:35:45;;;;;;;;;;;;;;;25.06;65.05;96157.84;4217202;28;5725;-73
2022/09/14 11:37:53;;;;;;;;;;;;;;;25.06;65.19;96160.53;4217496;28;5081;-74
2022/09/14 11:40:05;;;;;;;;;;;;;;;25.03;65.02;96158.41;4215655;28;5639;-74
2022/09/14 11:42:14;;;;;;;;;;;;;;;25.04;64.87;96160.03;4224070;28;5103;-72
2022/09/14 11:44:25;;;;;;;;;;;;;;;25.04;64.87;96160.03;4228040;28;5675;-72
2022/09/14 11:46:33;;;;;;;;;;;;;;;25.04;64.73;96173.56;4231899;27;6416;-72
2022/09/14 11:48:40;;;;;;;;;;;;;;;25.03;64.99;96158.41;4232523;28;5669;-72
2022/09/14 11:50:50;;;;;;;;;;;;;;;25.03;64.53;96169.22;4226437;28;5674;-73
2022/09/14 11:53:03;;;;;;;;;;;;;;;25.02;64.59;96173.03;4222525;28;5667;-73
2022/09/14 11:55:15;;;;;;;;;;;;;;;25.04;64.37;96173.56;4220418;28;5667;-74
2022/09/14 11:57:20;;;;;;;;;;;;;;;25.05;64.64;96167.06;4223921;28;5852;-75
2022/09/14 11:59:49;;;;;;;;;;;;;;;25.06;64.45;96165.94;4224015;28;5711;-74
2022/09/14 12:01:53;;;;;;;;;;;;;;;25.06;64.46;96168.66;4216326;28;5814;-72
2022/09/14 12:04:15;;;;;;;;;;;;;;;25.08;64.11;96171.84;4224248;28;5642;-73
2022/09/14 12:06:54;;;;;;;;;;;;;;;25.12;63.94;96167.44;4232798;27;5669;-74
2022/09/14 12:09:50;;;;;;;;;;;;;;;25.13;64.14;96167.13;4228148;28;5650;-73
2022/09/14 12:11:55;;;;;;;;;;;;;;;25.15;63.97;96175.78;4226342;28;5666;-72
2022/09/14 12:14:33;;;;;;;;;;;;;;;25.15;63.62;96167.66;4225953;27;5117;-74
2022/09/14 12:17:04;;;;;;;;;;;;;;;25.12;63.85;96162.81;4176310;28;5095;-72
2022/09/14 12:19:26;;;;;;;;;;;;;;;25.15;63.45;96172.25;4181095;28;5677;-73
2022/09/14 12:21:30;;;;;;;;;;;;;;;25.16;63.59;96171.97;4178647;28;5685;-72
2022/09/14 12:23:45;;;;;;;;;;;;;;;25.16;63.65;96171.16;4174134;28;5772;-70
2022/09/14 12:26:25;;;;;;;;;;;;;;;25.16;63.44;96173.88;4170841;28;5692;-75
2022/09/14 12:28:42;;;;;;;;;;;;;;;25.19;63.13;96167.84;4153144;28;7038;-74
2022/09/14 12:31:12;;;;;;;;;;;;;;;25.18;63.15;96177.06;4173756;28;5938;-83
2022/09/14 12:33:54;;;;;;;;;;;;;;;25.19;63.10;96176.75;4158646;28;5799;-72
2022/09/14 12:35:58;;;;;;;;;;;;;;;25.19;63.21;96182.16;4164859;28;5737;-71
2022/09/14 12:38:42;;;;;;;;;;;;;;;25.21;63.11;96171.03;4178495;28;5804;-80
2022/09/14 12:40:45;;;;;;;;;;;;;;;25.20;62.87;96175.66;4179268;28;5737;-75
2022/09/14 12:42:48;;;;;;;;;;;;;;;25.20;62.94;96174.84;4179447;28;5792;-81
2022/09/14 12:44:52;;;;;;;;;;;;;;;25.20;62.76;96169.44;4180931;28;5677;-78
2022/09/14 12:46:54;;;;;;;;;;;;;;;25.18;62.74;96171.66;4176402;28;5823;-72
2022/09/14 12:49:02;;;;;;;;;;;;;;;25.17;63.05;96178.16;4181387;28;5685;-79
2022/09/14 12:51:06;;;;;;;;;;;;;;;25.16;62.61;96179.28;4199793;28;5871;-70
2022/09/14 12:53:34;;;;;;;;;;;;;;;25.15;62.75;96172.25;4229777;28;5749;-69
2022/09/14 12:55:46;;;;;;;;;;;;;;;25.16;62.58;96165.75;4221919;28;5765;-71
2022/09/14 12:58:00;;;;;;;;;;;;;;;25.20;62.72;96164.03;4226681;28;5823;-75
2022/09/14 13:00:13;;;;;;;;;;;;;;;25.23;62.69;96158.00;4231186;28;5716;-73
2022/09/14 13:02:46;;;;;;;;;;;;;;;25.25;62.61;96150.38;4232037;28;5665;-83
2022/09/14 13:04:54;;;;;;;;;;;;;;;25.24;62.63;96143.38;4226675;27;5634;-71
2022/09/14 13:07:02;;;;;;;;;;;;;;;25.22;62.61;96145.59;4234961;28;5733;-71
2022/09/14 13:09:05;;;;;;;;;;;;;;;25.22;62.70;96140.97;4234272;28;5815;-70
2022/09/14 13:11:21;;;;;;;;;;;;;;;25.21;62.18;96135.88;4234477;28;5666;-70
2022/09/14 13:13:27;;;;;;;;;;;;;;;25.21;62.38;96138.59;4228320;28;5845;-71
2022/09/14 13:15:33;;;;;;;;;;;;;;;25.22;62.28;96137.47;4226280;27;5670;-70
2022/09/14 13:17:37;;;;;;;;;;;;;;;25.23;62.26;96136.38;4233766;28;5769;-70
2022/09/14 13:19:40;;;;;;;;;;;;;;;25.24;62.36;96138.78;4231671;28;5675;-70
2022/09/14 13:21:46;;;;;;;;;;;;;;;25.25;62.29;96126.06;4230830;28;5713;-70
2022/09/14 13:23:53;;;;;;;;;;;;;;;25.26;62.32;96119.56;4219661;28;5830;-70
2022/09/14 13:25:57;;;;;;;;;;;;;;;25.30;62.22;96117.03;4229760;28;5670;-70
2022/09/14 13:28:05;;;;;;;;;;;;;;;25.31;62.08;96111.31;4219733;28;5746;-70
2022/09/14 13:30:20;;;;;;;;;;;;;;;25.33;62.22;96102.91;4236318;27;5738;-71
2022/09/14 13:32:23;;;;;;;;;;;;;;;25.35;62.07;96106.91;4226298;28;5672;-70
2022/09/14 13:34:31;;;;;;;;;;;;;;;25.36;62.11;96100.38;4230582;28;5803;-70
2022/09/14 13:36:36;;;;;;;;;;;;;;;25.39;62.09;96102.50;4234225;28;5822;-70
2022/09/14 13:38:39;;;;;;;;;;;;;;;25.39;61.69;96097.09;4220622;28;5679;-70
2022/09/14 13:40:48;;;;;;;;;;;;;;;25.38;61.89;96091.97;4232081;28;5829;-70
2022/09/14 13:42:51;;;;;;;;;;;;;;;25.40;61.78;96084.34;4232721;28;5936;-70
2022/09/14 13:44:54;;;;;;;;;;;;;;;25.40;62.01;96077.03;4234962;28;5767;-70
2022/09/14 13:46:59;;;;;;;;;;;;;;;25.40;61.75;96071.63;4221247;28;5787;-70
2022/09/14 13:49:02;;;;;;;;;;;;;;;25.42;61.83;96068.63;4235569;28;5804;-71
2022/09/14 13:51:06;;;;;;;;;;;;;;;25.43;61.72;96071.00;4235495;28;5725;-70
2022/09/14 13:53:37;;;;;;;;;;;;;;;25.45;61.83;96076.91;4227641;28;5831;-70
2022/09/14 13:55:44;;;;;;;;;;;;;;;25.45;61.31;96068.78;4230252;28;6234;-70
2022/09/14 13:58:22;;;;;;;;;;;;;;;25.47;61.47;96057.66;4221413;28;5683;-70
2022/09/14 14:00:25;;;;;;;;;;;;;;;25.48;61.26;96061.97;4166519;28;5923;-68
2022/09/14 14:02:28;;;;;;;;;;;;;;;25.48;61.14;96057.38;4166629;28;5859;-68
2022/09/14 14:04:37;;;;;;;;;;;;;;;25.48;61.12;96065.50;4166343;28;5127;-68
2022/09/14 14:06:40;;;;;;;;;;;;;;;25.51;61.15;96061.38;4166113;28;5833;-68
2022/09/14 14:08:43;;;;;;;;;;;;;;;25.51;61.05;96067.59;4164433;28;5838;-68
2022/09/14 14:10:50;;;;;;;;;;;;;;;25.50;61.10;96060.56;4149033;28;5833;-68
2022/09/14 14:12:53;;;;;;;;;;;;;;;25.52;60.64;96065.69;4166710;28;5955;-68
2022/09/14 14:14:57;;;;;;;;;;;;;;;25.51;60.57;96059.47;4149531;28;6047;-68
2022/09/14 14:17:22;;;;;;;;;;;;;;;25.54;60.39;96060.75;4166277;28;5855;-68
2022/09/14 14:19:30;;;;;;;;;;;;;;;25.57;60.47;96056.63;4166340;28;6055;-68
2022/09/14 14:21:33;;;;;;;;;;;;;;;25.56;60.09;96053.13;4166758;28;5412;-68
2022/09/14 14:23:37;;;;;;;;;;;;;;;25.58;60.25;96044.69;4166927;28;5812;-68
2022/09/14 14:26:09;;;;;;;;;;;;;;;25.57;60.08;96059.34;4155369;28;5828;-68
2022/09/14 14:28:16;;;;;;;;;;;;;;;25.57;60.03;96054.72;4165756;28;5819;-68
2022/09/14 14:30:22;;;;;;;;;;;;;;;25.57;60.09;96043.09;4165499;28;5812;-68
2022/09/14 14:32:25;;;;;;;;;;;;;;;25.57;59.83;96052.00;4222296;28;5666;-68
2022/09/14 14:34:29;;;;;;;;;;;;;;;25.56;59.66;96039.59;4234843;28;5752;-68
2022/09/14 14:36:32;;;;;;;;;;;;;;;25.58;59.77;96039.28;4235147;28;5662;-67
2022/09/14 14:38:35;;;;;;;;;;;;;;;25.59;59.78;96032.75;4235312;27;5729;-68
2022/09/14 14:40:38;;;;;;;;;;;;;;;25.59;59.56;96025.44;4222055;28;5084;-67
2022/09/14 14:42:44;;;;;;;;;;;;;;;25.62;59.65;96029.47;4218021;28;5673;-67
2022/09/14 14:44:47;;;;;;;;;;;;;;;25.62;59.51;96018.63;4218677;28;5686;-68
2022/09/14 14:46:50;;;;;;;;;;;;;;;25.61;59.32;96017.84;4217898;28;5690;-67
2022/09/14 14:48:53;;;;;;;;;;;;;;;25.63;59.44;96022.94;4218076;28;5663;-67
2022/09/14 14:50:56;;;;;;;;;;;;;;;25.63;59.17;96025.66;4228271;28;5750;-67
2022/09/14 14:52:59;;;;;;;;;;;;;;;25.64;59.40;96013.72;4223695;28;5732;-67
2022/09/14 14:55:02;;;;;;;;;;;;;;;25.67;59.31;96018.50;4224716;27;5679;-67
2022/09/14 14:57:04;;;;;;;;;;;;;;;25.68;59.23;96018.19;4222123;28;5824;-67
2022/09/14 14:59:25;;;;;;;;;;;;;;;25.66;59.18;96019.59;4232923;28;5690;-67
2022/09/14 15:01:28;;;;;;;;;;;;;;;25.62;59.36;96013.22;4230220;28;5666;-67
2022/09/14 15:03:31;;;;;;;;;;;;;;;25.58;59.55;96014.94;4221136;28;5832;-74
2022/09/14 15:05:34;;;;;;;;;;;;;;;25.54;59.58;96012.03;4226112;28;5920;-74
2022/09/14 15:07:37;;;;;;;;;;;;;;;25.54;59.96;96010.13;4226645;28;5799;-78
2022/09/14 15:09:40;;;;;;;;;;;;;;;25.55;59.87;96002.81;4222973;27;5679;-77
2022/09/14 15:11:43;;;;;;;;;;;;;;;25.59;59.97;95997.56;4217948;28;5902;-78
2022/09/14 15:13:46;;;;;;;;;;;;;;;25.60;60.12;96005.41;4221871;28;5605;-81
2022/09/14 15:15:50;;;;;;;;;;;;;;;25.58;59.98;95996.78;4224852;28;5692;-82
2022/09/14 15:17:53;;;;;;;;;;;;;;;25.58;60.09;95990.56;4224684;28;5658;-73
2022/09/14 15:19:56;;;;;;;;;;;;;;;25.58;59.94;95985.97;4227163;28;5722;-69
2022/09/14 15:21:59;;;;;;;;;;;;;;;25.54;60.23;95980.38;4224733;28;6356;-80
2022/09/14 15:24:04;;;;;;;;;;;;;;;25.52;60.25;95982.59;4230429;28;5661;-72
2022/09/14 15:26:07;;;;;;;;;;;;;;;25.50;60.22;95973.97;4232004;28;5713;-80
2022/09/14 15:28:10;;;;;;;;;;;;;;;25.50;60.17;95973.19;4226370;27;5788;-73
2022/09/14 15:30:13;;;;;;;;;;;;;;;25.50;60.14;95968.56;4226817;27;5650;-75
2022/09/14 15:32:18;;;;;;;;;;;;;;;25.52;59.79;95963.66;4225528;27;5794;-76
2022/09/14 15:34:20;;;;;;;;;;;;;;;25.52;60.15;95954.72;4231349;28;5670;-77
2022/09/14 15:36:35;;;;;;;;;;;;;;;25.51;59.85;95962.06;4227634;27;6447;-74
2022/09/14 15:38:38;;;;;;;;;;;;;;;25.52;59.91;95970.97;4231267;27;5753;-76
2022/09/14 15:40:41;;;;;;;;;;;;;;;25.51;59.71;95962.06;4229546;27;5642;-74
2022/09/14 15:42:44;;;;;;;;;;;;;;;25.50;60.04;95948.84;4220688;27;5758;-73
2022/09/14 15:44:47;;;;;;;;;;;;;;;25.48;59.72;95948.31;4231434;27;5835;-75
2022/09/14 15:46:51;;;;;;;;;;;;;;;25.47;59.75;95957.53;4229949;27;5856;-69
2022/09/14 15:48:56;;;;;;;;;;;;;;;25.48;59.86;95969.97;4230348;27;5721;-70
2022/09/14 15:50:59;;;;;;;;;;;;;;;25.48;59.92;95975.38;4231696;27;5920;-70
2022/09/14 15:53:02;;;;;;;;;;;;;;;25.48;59.63;95969.97;4230850;27;5120;-69
2022/09/14 15:55:07;;;;;;;;;;;;;;;25.47;59.80;95979.19;4231820;27;5658;-70
2022/09/14 15:57:11;;;;;;;;;;;;;;;25.46;59.83;95974.88;4226555;27;5642;-69
2022/09/14 15:59:14;;;;;;;;;;;;;;;25.45;59.80;95981.41;4229850;27;5756;-69
2022/09/14 16:01:18;;;;;;;;;;;;;;;25.44;59.76;95977.91;4224247;27;5650;-74
2022/09/14 16:03:21;;;;;;;;;;;;;;;25.43;59.76;95984.44;4230625;27;5832;-84
2022/09/14 16:05:25;;;;;;;;;;;;;;;25.44;59.61;95982.53;4227579;27;5761;-76
2022/09/14 16:07:28;;;;;;;;;;;;;;;25.43;59.47;95961.97;4231668;27;5837;-68